Weather observations for the past three days for
Bowie Municipal Airport
Imperial (Metric)
Date Time (cdt) Wind (mph) Vis. (mi.) Weather Sky Cond. Temperature (ºF) Relative Humidity Wind Chill (°F) Heat Index (°F) Pressure Precipitation (in)
Air Dwpt 6 hour altimeter (in) sea level (mb) 1 hr 3 hr 6 hr
Max. Min.
02 09:15 S 3 10.00 Fair CLR 82 68.2 63% 85 30.03 0.0
02 08:55 SE 6 10.00 Fair CLR 80.6 68 66% 83 30.03 0.0
02 08:35 SE 6 10.00 Fair CLR 78.6 67.6 69% 81 30.03 0.0
02 08:15 Calm 10.00 Fair CLR 77.2 67.6 73% 79 30.03 0.0
02 07:55 SE 3 10.00 Fair CLR 75.4 67.3 76% 77 30.02 0.0
02 07:35 Calm 5.00 Fair with Haze CLR 74.7 67.1 77% 30.02 0.0
02 07:15 Calm 7.00 Fair CLR 73.8 66.9 79% 30.02 0.0
02 06:55 Calm 10.00 Fair CLR 73.6 66.6 80.6 73.6 79% 30.01 0.0
02 06:35 Calm 10.00 Fair CLR 74.7 66.9 77% 30.01 0.0
02 06:15 Calm 10.00 Fair CLR 75.2 66.6 75% 76 30.01 0.0
02 05:55 Calm 10.00 Fair CLR 75.7 66.7 74% 77 30.01 0.0
02 05:35 Calm 10.00 Fair CLR 76.5 67.1 73% 78 30.01 0.0
02 05:15 Calm 10.00 Fair CLR 76.6 66.7 72% 78 30 0.0
02 04:55 Calm 10.00 Fair CLR 77.7 66.7 69% 80 30.01 0.0
02 04:35 SE 3 10.00 Fair CLR 78.1 66.7 68% 80 30 0.0
02 04:15 SE 5 10.00 Fair CLR 78.3 66.6 67% 80 30 0.0
02 03:55 SE 3 10.00 Fair CLR 77.5 65.8 67% 79 30 0.0
02 03:35 S 3 10.00 Fair CLR 77.9 65.3 65% 80 30 0.0
02 03:15 SE 3 10.00 Fair CLR 78.1 64.9 64% 80 30 0.0
02 02:55 S 5 10.00 Fair CLR 78.8 64.8 62% 81 30.01 0.0
02 02:35 SE 6 10.00 Fair CLR 80.6 64.8 59% 82 30 0.0
02 02:15 SE 5 10.00 Fair CLR 79.7 64.6 60% 81 30 0.0
02 01:55 SE 3 10.00 Fair CLR 78.8 64.4 61% 81 30 0.0
02 01:35 Calm 10.00 Fair CLR 78.6 64.4 62% 80 30 0.0
02 01:15 Calm 10.00 Fair CLR 79 63.9 60% 81 30 0.0
02 00:55 Calm 10.00 Fair CLR 79.7 63.7 96.4 79.7 58% 81 30 0.0
02 00:15 Calm 10.00 Fair CLR 81.5 63.9 55% 83 29.99 0.0
01 23:55 Calm 10.00 Fair CLR 81.5 63.9 55% 83 29.99 0.0
01 23:35 Calm 10.00 Fair CLR 81.9 63.5 54% 83 29.99 0.0
01 23:15 S 3 10.00 Fair CLR 82.4 63.1 52% 84 30 0.0
01 22:55 Calm 10.00 Fair CLR 82.9 62.8 51% 84 30 0.0
01 22:35 Calm 10.00 Fair CLR 83.8 62.8 49% 85 29.99 0.0
01 22:15 Calm 10.00 Fair CLR 83.8 63 50% 85 29.98 0.0
01 21:55 SE 3 10.00 Fair CLR 84.2 62.1 47% 85 29.97 0.0
01 21:35 Calm 10.00 Fair CLR 84.9 62.1 46% 85 29.97 0.0
01 21:15 Calm 10.00 Fair CLR 86.7 62.6 45% 87 29.95 0.0
01 20:55 Calm 10.00 Fair CLR 88 62.6 43% 89 29.95 0.0
01 20:35 Calm 10.00 Fair CLR 89.1 62.2 41% 90 29.94 0.0
01 20:15 Calm 10.00 Fair CLR 91 62.2 38% 92 29.93 0.0
01 19:55 SE 5 10.00 Fair CLR 93 62.6 36% 94 29.93 0.0
01 19:35 SE 5 10.00 Fair CLR 94.5 62.1 34% 95 29.94 0.0
01 19:15 SE 6 10.00 Fair CLR 95.5 61.9 33% 96 29.94 0.0
01 18:55 SE 7 10.00 Fair CLR 96.4 61.5 99.3 94.5 31% 97 29.94 0.0
01 18:35 SE 9 10.00 Fair CLR 97 61.2 31% 98 29.95 0.0
01 18:15 SE 8 10.00 Partly Cloudy SCT120 97.2 61.7 31% 98 29.95 0.0
01 17:55 SE 10 10.00 Partly Cloudy SCT120 95 62.1 34% 96 29.95 0.0
01 17:35 SE 7 10.00 Fair CLR 95.4 61.9 33% 96 29.95 0.0
01 17:15 SE 13 10.00 Fair CLR 98.6 61.7 30% 100 29.95 0.0
01 16:55 SE 8 10.00 Partly Cloudy SCT080 96.1 61.9 32% 97 29.96 0.0
01 16:35 SE 12 G 16 10.00 Partly Cloudy SCT080 97.3 61.7 31% 98 29.95 0.0
01 16:15 S 8 10.00 Partly Cloudy SCT080 SCT110 99 61.9 29% 100 29.96 0.0
01 15:55 SE 3 10.00 Fair CLR 96.8 61.3 31% 98 29.97 0.0
01 15:35 S 7 10.00 Partly Cloudy SCT075 98.2 62.4 31% 100 29.97 0.0
01 15:15 E 3 10.00 Fair CLR 97.7 63.1 32% 100 29.98 0.0
01 14:55 S 8 7.00 Fair CLR 97.5 63.3 32% 99 29.99 0.0
01 14:35 S 7 7.00 Fair CLR 97.5 63.3 32% 99 30 0.0
01 14:15 S 9 10.00 Fair CLR 97 62.6 32% 98 30.01 0.0
01 13:55 S 8 10.00 Fair CLR 98.1 64 33% 101 30.01 0.0
01 13:35 SE 6 10.00 Partly Cloudy SCT110 96.3 63.3 34% 98 30.02 0.0
01 13:15 SE 7 10.00 Partly Cloudy SCT070 SCT085 SCT100 95.4 62.8 34% 97 30.03 0.0
01 12:55 SE 3 10.00 Partly Cloudy SCT070 95 63.5 96.6 70.7 35% 97 30.04 0.0
01 12:35 SE 7 10.00 Partly Cloudy SCT065 96.1 64.6 35% 99 30.04 0.0
01 12:15 SE 6 10.00 Partly Cloudy SCT065 95.5 64.2 36% 98 30.05 0.0
01 11:55 Calm 10.00 Fair CLR 94.5 65.5 39% 97 30.05 0.0
01 11:35 S 9 10.00 Fair CLR 93.4 65.5 40% 96 30.06 0.0
01 11:15 S 7 10.00 Fair CLR 92.8 65.7 41% 96 30.06 0.0
01 10:55 SW 6 10.00 Fair CLR 91.6 66 43% 94 30.06 0.0
01 10:35 Calm 10.00 Fair CLR 89.8 66 46% 92 30.06 0.0
01 10:15 S 8 10.00 Fair CLR 88.9 66.2 47% 91 30.06 0.0
01 09:35 S 8 10.00 Fair CLR 86.7 66.2 51% 89 30.06 0.0
01 09:15 SW 6 10.00 Fair CLR 84.7 65.5 53% 87 30.06 0.0
01 08:55 SW 6 10.00 Fair CLR 81.3 63.9 55% 83 30.05 0.0
01 08:35 SW 5 10.00 Fair CLR 77.7 62.8 60% 79 30.05 0.0
01 08:15 Calm 10.00 Fair CLR 74.3 61.9 65% 30.06 0.0
01 07:55 Calm 10.00 Fair CLR 71.8 61.7 71% 30.05 0.0
01 07:35 Calm 7.00 Fair CLR 71.1 61 71% 30.04 0.0
01 07:15 Calm 10.00 Fair CLR 70.9 60.8 71% 30.04 0.0
01 06:55 Calm 10.00 Fair CLR 71.8 60.4 78.3 71.4 68% 30.04 0.0
01 06:35 Calm 10.00 Fair CLR 72.5 60.4 66% 30.04 0.0
01 06:15 Calm 10.00 Fair CLR 72.7 60.1 65% 30.04 0.0
01 05:55 Calm 10.00 Fair CLR 73.4 60.1 63% 30.03 0.0
01 05:35 Calm 10.00 Fair CLR 72.9 60.3 65% 30.03 0.0
01 05:15 Calm 10.00 Fair CLR 73.4 59.9 63% 30.03 0.0
01 04:55 Calm 10.00 Fair CLR 73.4 59.4 62% 30.03 0.0
01 04:35 Calm 10.00 Fair CLR 73.4 59.5 62% 30.03 0.0
01 04:15 Calm 10.00 Fair CLR 73.6 59.7 62% 30.03 0.0
01 03:55 Calm 10.00 Fair CLR 74.5 59.4 59% 30.02 0.0
01 03:35 Calm 10.00 Fair CLR 75.2 59.2 58% 78 30.03 0.0
01 03:15 Calm 10.00 Fair CLR 75.2 59.4 58% 78 30.02 0.0
01 02:55 E 3 10.00 Fair CLR 73.4 60.1 63% 30.02 0.0
01 02:35 Calm 10.00 Fair CLR 74.1 61.2 64% 30.01 0.0
01 02:15 Calm 10.00 Fair CLR 73.8 60.6 64% 30.02 0.0
01 01:55 Calm 10.00 Fair CLR 75.7 60.1 58% 78 30.02 0.0
01 01:35 Calm 10.00 Fair CLR 76.1 61.7 61% 78 30.01 0.0
01 01:15 Calm 10.00 Fair CLR 78.3 60.3 54% 80 30.01 0.0
01 00:55 Calm 10.00 Fair CLR 77.9 59 96.1 77.9 52% 79 30.01 0.0
01 00:35 Calm 10.00 Fair CLR 79 60.1 52% 80 30 0.0
01 00:15 Calm 10.00 Fair CLR 78.8 59.4 51% 80 30 0.0
31 23:55 Calm 10.00 Fair CLR 79.9 59.2 49% 81 30 0.0
31 23:35 Calm 10.00 Fair CLR 81.1 59.2 47% 82 30 0.0
31 23:15 Calm 10.00 Fair CLR 80.8 59 48% 81 30 0.0
31 22:55 Calm 10.00 Fair CLR 80.8 59.4 48% 81 30 0.0
31 22:35 Calm 10.00 Fair CLR 82.6 58.6 44% 83 29.99 0.0
31 22:15 Calm 10.00 Fair CLR 83.7 58.6 43% 83 29.99 0.0
31 21:55 SE 3 10.00 Fair CLR 84.6 58.5 41% 84 29.98 0.0
31 21:35 Calm 10.00 Fair CLR 85.6 58.6 40% 85 29.98 0.0
31 21:15 Calm 10.00 Fair CLR 86 58.5 39% 85 29.97 0.0
31 20:55 SE 3 10.00 Fair CLR 87.3 59 39% 87 29.96 0.0
31 20:35 SE 3 10.00 Fair CLR 89.4 58.6 35% 89 29.96 0.0
31 20:15 SE 3 10.00 Fair CLR 91 58.5 33% 90 29.95 0.0
31 19:55 SE 3 10.00 Fair CLR 93 58.1 31% 92 29.95 0.0
31 19:35 SE 9 10.00 Fair CLR 94.5 57.7 29% 93 29.95 0.0
31 19:15 SE 7 10.00 Fair CLR 95.4 57.4 28% 94 29.95 0.0
31 18:55 SE 7 10.00 Fair CLR 96.3 57.4 100.2 95.2 27% 95 29.95 0.0
31 18:35 SE 7 10.00 Fair CLR 96.4 56.7 26% 95 29.95 0.0
31 18:15 SE 8 10.00 Fair CLR 97.9 57.2 26% 97 29.95 0.0
31 17:55 SE 9 10.00 Partly Cloudy SCT095 98.6 55.9 24% 97 29.95 0.0
31 17:35 S 9 G 16 10.00 Partly Cloudy SCT100 99.1 54.9 23% 97 29.96 0.0
31 17:15 SE 5 10.00 Partly Cloudy SCT100 98.6 54.3 23% 97 29.96 0.0
31 16:55 S 7 G 17 10.00 Partly Cloudy SCT100 99.5 54.7 22% 98 29.97 0.0
31 16:35 S 9 10.00 Partly Cloudy SCT095 99.7 54.1 22% 98 29.97 0.0
31 16:15 S 10 10.00 Partly Cloudy SCT095 99.7 54.1 22% 98 29.97 0.0
31 15:55 SE 7 G 17 10.00 Partly Cloudy SCT095 99.5 54 22% 97 29.98 0.0
31 15:35 SW 9 G 21 10.00 Fair CLR 99 54.1 22% 97 29.99 0.0
31 15:15 S 13 10.00 Fair CLR 98.6 54.1 23% 97 30 0.0
31 14:55 S 9 G 18 10.00 Fair CLR 99.3 54.5 22% 97 30 0.0
31 14:35 SW 8 G 24 10.00 Fair CLR 97 52 22% 94 30.01 0.0
31 14:15 S 13 G 17 10.00 Fair CLR 98.4 51.8 21% 96 30.02 0.0
31 13:55 Calm 7.00 Partly Cloudy SCT085 97.2 51.8 22% 94 30.02 0.0
31 13:35 S 15 10.00 Partly Cloudy SCT085 97.2 54.1 24% 95 30.03 0.0
31 13:15 S 13 G 16 10.00 Fair CLR 96.4 56.3 26% 95 30.04 0.0
31 12:55 S 10 10.00 Fair CLR 95.7 57.9 95.7 73.8 28% 95 30.05 0.0
31 12:35 S 12 G 16 10.00 Fair CLR 95 59.7 31% 95 30.06 0.0
31 12:15 S 10 10.00 Fair CLR 94.6 61.5 33% 95 30.06 0.0
31 11:55 SW 8 G 23 10.00 Fair CLR 93 62.2 36% 94 30.06 0.0
31 11:35 S 9 10.00 Fair CLR 93 62.4 36% 94 30.07 0.0
31 11:15 S 9 7.00 Fair CLR 91.8 63.5 39% 93 30.06 0.0
31 10:55 S 13 10.00 Fair CLR 91.2 64.8 42% 93 30.06 0.0
31 10:35 S 9 10.00 Fair CLR 89.4 64.9 44% 91 30.05 0.0
31 10:15 S 8 10.00 Fair CLR 88 66.4 49% 91 30.05 0.0
31 09:55 S 7 10.00 Fair CLR 86.7 66.6 51% 89 30.05 0.0
31 09:35 S 8 10.00 Fair CLR 84.7 66.4 54% 87 30.05 0.0
31 09:15 S 7 10.00 Fair CLR 83.7 66.6 56% 86 30.05 0.0
31 08:55 S 5 10.00 Fair CLR 81.9 67.1 61% 84 30.04 0.0
31 08:35 S 5 10.00 Fair CLR 77.7 66 67% 80 30.04 0.0
31 08:15 S 5 10.00 Fair CLR 75.6 64.9 70% 77 30.03 0.0
31 07:55 SE 5 10.00 Fair CLR 74.3 64.4 71% 30.02 0.0
31 07:35 SE 3 10.00 Fair CLR 73.8 64.4 73% 30.01 0.0
31 07:15 S 5 7.00 Fair CLR 73.8 64 72% 30 0.0
31 06:55 S 5 10.00 Fair CLR 74.3 64.4 79.3 73.8 71% 30 0.0
31 06:35 S 3 10.00 Fair CLR 74.3 63.7 70% 29.99 0.0
31 06:15 S 3 10.00 Fair CLR 73.9 63.3 70% 29.99 0.0
31 05:55 Calm 10.00 Fair CLR 75 62.6 65% 77 29.99 0.0
31 05:35 S 3 10.00 Fair CLR 75.6 62.1 63% 78 29.98 0.0
31 04:55 S 3 10.00 Fair CLR 75.4 60.8 61% 78 29.98 0.0
31 04:35 S 3 10.00 Fair CLR 75.6 60.1 59% 78 29.98 0.0
31 04:15 S 3 10.00 Fair CLR 76.1 59.9 57% 78 29.98 0.0
31 03:55 S 5 10.00 Fair CLR 75.7 59.4 57% 78 29.98 0.0
31 03:35 S 5 10.00 Fair CLR 76.1 59 56% 78 29.98 0.0
31 03:15 S 3 10.00 Fair CLR 76.6 58.6 54% 78 29.98 0.0
31 02:55 S 3 10.00 Fair CLR 76.8 58.5 53% 79 29.98 0.0
31 02:35 SE 3 10.00 Fair CLR 77 58.8 54% 79 29.98 0.0
31 02:15 Calm 10.00 Fair CLR 77.9 58.1 51% 79 29.98 0.0
31 01:55 S 3 10.00 Fair CLR 78.4 58.1 50% 80 29.98 0.0
31 01:35 S 5 10.00 Fair CLR 77.9 57.7 50% 79 29.98 0.0
31 01:15 SE 3 10.00 Fair CLR 79.2 58.3 49% 80 29.98 0.0
31 00:55 S 5 10.00 Fair CLR 78.6 57.6 97.7 77.2 49% 80 29.97 0.0
31 00:35 Calm 10.00 Fair CLR 78.6 57.6 49% 80 29.97 0.0
31 00:15 S 3 10.00 Fair CLR 79.3 57.6 47% 80 29.97 0.0
30 23:55 SE 3 10.00 Fair CLR 79.7 57.4 47% 80 29.97 0.0
30 23:35 SE 3 10.00 Fair CLR 81 57.2 44% 81 29.97 0.0
30 23:15 SE 3 10.00 Fair CLR 81.9 57.2 43% 82 29.97 0.0
30 22:55 SE 3 10.00 Fair CLR 82.8 57 42% 82 29.97 0.0
30 22:35 SE 3 10.00 Fair CLR 84.4 56.7 39% 83 29.96 0.0
30 22:15 SE 3 10.00 Fair CLR 85.1 56.8 38% 84 29.96 0.0
30 21:55 SE 6 10.00 Fair CLR 86.2 56.5 36% 85 29.95 0.0
30 21:35 SE 5 10.00 Fair CLR 87.1 56.5 35% 86 29.94 0.0
30 21:15 SE 5 10.00 Fair CLR 88.3 56.3 34% 87 29.93 0.0
30 20:55 SE 5 10.00 Fair CLR 89.6 55.8 32% 88 29.92 0.0
30 20:35 SE 6 10.00 Fair CLR 91 55.8 30% 89 29.92 0.0
30 20:15 SE 6 10.00 Fair CLR 92.3 55.6 29% 90 29.92 0.0
30 19:55 SE 6 10.00 Fair CLR 94.5 54.7 26% 92 29.91 0.0
30 19:35 S 6 10.00 Fair CLR 95.9 54 24% 94 29.91 0.0
30 19:15 SE 7 10.00 Fair CLR 96.8 54.5 24% 95 29.91 0.0
30 18:55 SE 8 10.00 Fair CLR 97.7 54.5 100.9 97 23% 96 29.91 0.0
30 18:35 SE 12 10.00 Fair CLR 98.6 55.4 24% 97 29.91 0.0
30 18:15 SE 8 10.00 Fair CLR 99.5 55.2 23% 98 29.92 0.0
30 17:55 S 9 10.00 Fair CLR 99.5 54.5 22% 98 29.91 0.0
30 17:35 S 7 10.00 Fair CLR 100.9 55.8 22% 100 29.91 0.0
30 17:15 S 5 G 18 10.00 Fair CLR 99.9 55 22% 98 29.92 0.0
30 16:55 S 12 G 16 10.00 Fair CLR 100 56.3 23% 99 29.92 0.0
30 16:35 S 14 G 17 10.00 Partly Cloudy SCT090 100.4 56.3 23% 99 29.93 0.0
30 16:15 SE 9 G 21 10.00 Partly Cloudy SCT090 99.9 58.1 25% 99 29.93 0.0
30 15:55 SE 5 10.00 Partly Cloudy SCT085 99.7 58.1 25% 99 29.94 0.0
30 15:35 SE 6 G 16 10.00 Partly Cloudy SCT085 98.4 57.9 26% 98 29.95 0.0
30 15:15 SE 13 G 16 10.00 Partly Cloudy SCT085 97.9 58.3 27% 97 29.95 0.0
30 14:55 SE 12 G 17 10.00 Partly Cloudy SCT085 99.7 59.2 26% 100 29.96 0.0
30 14:35 S 9 10.00 Fair CLR 99.9 59.7 27% 100 29.97 0.0
30 14:15 SW 7 10.00 Fair CLR 99 57 25% 98 29.98 0.0
30 13:55 S 9 G 21 10.00 Fair CLR 97.9 59.4 28% 98 29.98 0.0
30 13:35 S 7 G 20 10.00 Partly Cloudy SCT075 98.1 61.5 30% 99 29.99 0.0
30 13:15 S 15 G 22 10.00 Partly Cloudy SCT075 97.7 62.2 31% 99 30 0.0
30 12:55 SW 13 G 20 10.00 Partly Cloudy SCT070 96.8 61.9 97 72.1 32% 98 30.01 0.0
30 12:35 S 13 G 18 10.00 Partly Cloudy SCT070 96.8 63.7 34% 99 30.02 0.0
30 12:15 S 16 G 22 10.00 Partly Cloudy SCT060 96.6 63.5 34% 99 30.03 0.0
30 11:55 SW 9 G 18 10.00 Fair CLR 94.1 64.4 38% 96 30.03 0.0
30 11:35 S 13 G 18 10.00 Fair CLR 95 65.5 38% 98 30.04 0.0
30 11:15 SW 9 G 16 10.00 Fair CLR 93.6 66.2 41% 97 30.04 0.0
30 10:55 SW 12 G 17 10.00 Fair CLR 92.1 66.2 43% 95 30.04 0.0
30 10:35 SW 13 G 18 10.00 Fair CLR 91 66.4 44% 94 30.04 0.0
30 10:15 SW 12 10.00 Fair CLR 89.1 66.7 48% 92 30.04 0.0
30 09:55 S 8 10.00 Fair CLR 86.5 66.9 52% 89 30.04 0.0
30 09:35 S 9 10.00 Fair CLR 84.9 66.6 54% 87 30.05 0.0
Date Time (cdt) Wind (mph) Vis. (mi.) Weather Sky Cond. Air Dwpt Max. Min. Relative Humidity Wind Chill (°F) Heat Index (°F) altimeter (in) sea level (mb) 1 hr 3 hr 6 hr
6 hour
Temperature (ºF) Pressure Precipitation (in)